sensor_id;sensor_type;location;lat;lon;timestamp;pressure;altitude;pressure_sealevel;temperature;humidity
25658;BME280;13517;59.320;18.042;2023-10-09T00:01:06;101218.94;;;4.21;100.00
25658;BME280;13517;59.320;18.042;2023-10-09T00:03:37;101185.44;;;4.09;100.00
25658;BME280;13517;59.320;18.042;2023-10-09T00:06:03;101197.88;;;4.10;100.00
25658;BME280;13517;59.320;18.042;2023-10-09T00:08:29;101206.69;;;4.14;100.00
25658;BME280;13517;59.320;18.042;2023-10-09T00:11:01;101193.38;;;4.12;100.00
25658;BME280;13517;59.320;18.042;2023-10-09T00:13:43;101118.06;;;3.67;100.00
25658;BME280;13517;59.320;18.042;2023-10-09T00:16:18;101200.38;;;4.16;100.00
25658;BME280;13517;59.320;18.042;2023-10-09T00:19:04;101186.28;;;4.11;100.00
25658;BME280;13517;59.320;18.042;2023-10-09T00:21:48;101203.19;;;4.12;100.00
25658;BME280;13517;59.320;18.042;2023-10-09T00:24:14;101188.97;;;4.11;100.00
25658;BME280;13517;59.320;18.042;2023-10-09T00:26:46;101125.84;;;3.75;100.00
25658;BME280;13517;59.320;18.042;2023-10-09T00:29:13;101210.34;;;4.11;100.00
25658;BME280;13517;59.320;18.042;2023-10-09T00:31:52;101193.38;;;4.12;100.00
25658;BME280;13517;59.320;18.042;2023-10-09T00:34:28;101164.47;;;3.95;100.00
25658;BME280;13517;59.320;18.042;2023-10-09T00:36:54;101194.31;;;4.11;100.00
25658;BME280;13517;59.320;18.042;2023-10-09T00:39:21;101193.44;;;4.09;100.00
25658;BME280;13517;59.320;18.042;2023-10-09T00:42:11;101105.16;;;3.52;100.00
25658;BME280;13517;59.320;18.042;2023-10-09T00:44:46;101185.53;;;4.06;100.00
25658;BME280;13517;59.320;18.042;2023-10-09T00:47:14;101178.47;;;4.03;100.00
25658;BME280;13517;59.320;18.042;2023-10-09T00:52:13;101173.22;;;4.00;100.00
25658;BME280;13517;59.320;18.042;2023-10-09T00:54:48;101172.56;;;3.92;100.00
25658;BME280;13517;59.320;18.042;2023-10-09T00:57:18;101148.75;;;3.84;100.00
25658;BME280;13517;59.320;18.042;2023-10-09T00:59:47;101165.16;;;4.02;100.00
25658;BME280;13517;59.320;18.042;2023-10-09T01:02:25;101109.97;;;3.71;100.00
25658;BME280;13517;59.320;18.042;2023-10-09T01:05:01;101150.03;;;4.01;100.00
25658;BME280;13517;59.320;18.042;2023-10-09T01:07:37;101138.53;;;3.99;100.00
25658;BME280;13517;59.320;18.042;2023-10-09T01:10:09;101126.19;;;3.93;100.00
25658;BME280;13517;59.320;18.042;2023-10-09T01:12:36;101142.81;;;4.04;100.00
25658;BME280;13517;59.320;18.042;2023-10-09T01:15:08;101148.19;;;4.03;100.00
25658;BME280;13517;59.320;18.042;2023-10-09T01:17:42;101068.56;;;3.54;100.00
25658;BME280;13517;59.320;18.042;2023-10-09T01:20:11;101131.50;;;3.94;100.00
25658;BME280;13517;59.320;18.042;2023-10-09T01:22:42;101081.50;;;3.70;100.00
25658;BME280;13517;59.320;18.042;2023-10-09T01:25:09;101130.50;;;3.99;100.00
25658;BME280;13517;59.320;18.042;2023-10-09T01:27:35;101127.84;;;3.99;100.00
25658;BME280;13517;59.320;18.042;2023-10-09T01:30:06;101080.72;;;3.66;100.00
25658;BME280;13517;59.320;18.042;2023-10-09T01:32:32;101122.72;;;3.91;100.00
25658;BME280;13517;59.320;18.042;2023-10-09T01:34:59;101125.34;;;3.92;100.00
25658;BME280;13517;59.320;18.042;2023-10-09T01:37:25;101005.44;;;3.21;100.00
25658;BME280;13517;59.320;18.042;2023-10-09T01:39:56;101103.47;;;3.79;100.00
25658;BME280;13517;59.320;18.042;2023-10-09T01:42:44;101122.03;;;3.84;100.00
25658;BME280;13517;59.320;18.042;2023-10-09T01:45:12;101071.34;;;3.51;100.00
25658;BME280;13517;59.320;18.042;2023-10-09T01:47:40;101114.09;;;3.81;100.00
25658;BME280;13517;59.320;18.042;2023-10-09T01:50:07;101115.84;;;3.82;100.00
25658;BME280;13517;59.320;18.042;2023-10-09T01:52:45;101115.94;;;3.79;100.00
25658;BME280;13517;59.320;18.042;2023-10-09T01:55:11;101014.34;;;3.22;100.00
25658;BME280;13517;59.320;18.042;2023-10-09T01:57:53;101084.25;;;3.66;100.00
25658;BME280;13517;59.320;18.042;2023-10-09T02:00:18;101099.09;;;3.77;100.00
25658;BME280;13517;59.320;18.042;2023-10-09T02:02:48;101084.16;;;3.70;100.00
25658;BME280;13517;59.320;18.042;2023-10-09T02:05:15;101072.72;;;3.64;100.00
25658;BME280;13517;59.320;18.042;2023-10-09T02:07:42;101094.56;;;3.79;100.00
25658;BME280;13517;59.320;18.042;2023-10-09T02:10:17;101089.38;;;3.74;100.00
25658;BME280;13517;59.320;18.042;2023-10-09T02:12:58;101089.41;;;3.73;100.00
25658;BME280;13517;59.320;18.042;2023-10-09T02:15:29;101086.72;;;3.73;100.00
25658;BME280;13517;59.320;18.042;2023-10-09T02:18:17;101069.13;;;3.65;100.00
25658;BME280;13517;59.320;18.042;2023-10-09T02:20:46;100982.50;;;3.14;100.00
25658;BME280;13517;59.320;18.042;2023-10-09T02:23:13;101085.13;;;3.67;100.00
25658;BME280;13517;59.320;18.042;2023-10-09T02:25:41;101085.16;;;3.65;100.00
25658;BME280;13517;59.320;18.042;2023-10-09T02:28:09;101073.56;;;3.66;100.00
25658;BME280;13517;59.320;18.042;2023-10-09T02:30:45;101074.53;;;3.64;100.00
25658;BME280;13517;59.320;18.042;2023-10-09T02:33:15;101075.47;;;3.61;100.00
25658;BME280;13517;59.320;18.042;2023-10-09T02:35:46;101040.56;;;3.37;100.00
25658;BME280;13517;59.320;18.042;2023-10-09T02:38:16;101065.91;;;3.54;100.00
25658;BME280;13517;59.320;18.042;2023-10-09T02:40:42;101077.34;;;3.59;100.00
25658;BME280;13517;59.320;18.042;2023-10-09T02:43:30;101056.31;;;3.47;100.00
25658;BME280;13517;59.320;18.042;2023-10-09T02:46:18;101078.38;;;3.55;100.00
25658;BME280;13517;59.320;18.042;2023-10-09T02:48:58;101054.50;;;3.49;100.00
25658;BME280;13517;59.320;18.042;2023-10-09T02:51:24;101070.38;;;3.53;100.00
25658;BME280;13517;59.320;18.042;2023-10-09T02:53:56;101050.34;;;3.38;100.00
25658;BME280;13517;59.320;18.042;2023-10-09T02:56:26;101061.63;;;3.48;100.00
25658;BME280;13517;59.320;18.042;2023-10-09T02:59:24;101065.31;;;3.44;100.00
25658;BME280;13517;59.320;18.042;2023-10-09T03:01:50;101071.50;;;3.46;100.00
25658;BME280;13517;59.320;18.042;2023-10-09T03:04:18;101063.50;;;3.45;100.00
25658;BME280;13517;59.320;18.042;2023-10-09T03:06:44;100999.72;;;3.04;100.00
25658;BME280;13517;59.320;18.042;2023-10-09T03:09:19;101063.69;;;3.38;100.00
25658;BME280;13517;59.320;18.042;2023-10-09T03:11:52;101046.28;;;3.25;100.00
25658;BME280;13517;59.320;18.042;2023-10-09T03:14:19;101052.19;;;3.36;100.00
25658;BME280;13517;59.320;18.042;2023-10-09T03:16:46;101026.91;;;3.18;100.00
25658;BME280;13517;59.320;18.042;2023-10-09T03:19:14;101047.84;;;3.32;100.00
25658;BME280;13517;59.320;18.042;2023-10-09T03:21:39;101026.72;;;3.24;100.00
25658;BME280;13517;59.320;18.042;2023-10-09T03:24:06;100998.66;;;3.09;100.00
25658;BME280;13517;59.320;18.042;2023-10-09T03:26:33;101052.38;;;3.30;100.00
25658;BME280;13517;59.320;18.042;2023-10-09T03:28:58;101023.28;;;3.21;100.00
25658;BME280;13517;59.320;18.042;2023-10-09T03:31:27;101020.66;;;3.18;100.00
25658;BME280;13517;59.320;18.042;2023-10-09T03:33:55;100973.56;;;2.85;100.00
25658;BME280;13517;59.320;18.042;2023-10-09T03:36:21;101011.03;;;3.13;100.00
25658;BME280;13517;59.320;18.042;2023-10-09T03:38:46;100992.47;;;3.09;100.00
25658;BME280;13517;59.320;18.042;2023-10-09T03:41:12;101049.38;;;3.41;100.00
25658;BME280;13517;59.320;18.042;2023-10-09T03:43:39;101046.75;;;3.39;100.00
25658;BME280;13517;59.320;18.042;2023-10-09T03:46:09;101022.25;;;3.25;100.00
25658;BME280;13517;59.320;18.042;2023-10-09T03:48:55;101053.06;;;3.37;100.00
25658;BME280;13517;59.320;18.042;2023-10-09T03:51:22;101010.00;;;3.18;100.00
25658;BME280;13517;59.320;18.042;2023-10-09T03:53:49;101035.34;;;3.34;100.00
25658;BME280;13517;59.320;18.042;2023-10-09T03:56:15;101031.00;;;3.30;100.00
25658;BME280;13517;59.320;18.042;2023-10-09T03:58:45;101027.50;;;3.28;100.00
25658;BME280;13517;59.320;18.042;2023-10-09T04:01:13;101027.59;;;3.25;100.00
25658;BME280;13517;59.320;18.042;2023-10-09T04:03:48;101021.31;;;3.26;100.00
25658;BME280;13517;59.320;18.042;2023-10-09T04:06:13;101013.28;;;3.27;100.00
25658;BME280;13517;59.320;18.042;2023-10-09T04:08:40;101020.44;;;3.27;100.00
25658;BME280;13517;59.320;18.042;2023-10-09T04:11:13;101017.75;;;3.27;100.00
25658;BME280;13517;59.320;18.042;2023-10-09T04:13:45;100991.44;;;3.13;100.00
25658;BME280;13517;59.320;18.042;2023-10-09T04:16:12;101017.00;;;3.22;100.00
25658;BME280;13517;59.320;18.042;2023-10-09T04:18:56;100991.47;;;3.11;100.00
25658;BME280;13517;59.320;18.042;2023-10-09T04:21:25;101005.56;;;3.17;100.00
25658;BME280;13517;59.320;18.042;2023-10-09T04:24:05;101013.50;;;3.20;100.00
25658;BME280;13517;59.320;18.042;2023-10-09T04:26:44;101006.41;;;3.19;100.00
25658;BME280;13517;59.320;18.042;2023-10-09T04:29:10;100968.75;;;2.98;100.00
25658;BME280;13517;59.320;18.042;2023-10-09T04:31:45;100992.34;;;3.13;100.00
25658;BME280;13517;59.320;18.042;2023-10-09T04:34:23;100993.25;;;3.12;100.00
25658;BME280;13517;59.320;18.042;2023-10-09T04:36:50;100925.97;;;2.69;100.00
25658;BME280;13517;59.320;18.042;2023-10-09T04:39:16;100999.41;;;3.15;100.00
25658;BME280;13517;59.320;18.042;2023-10-09T04:41:54;100998.59;;;3.12;100.00
25658;BME280;13517;59.320;18.042;2023-10-09T04:44:38;100921.66;;;2.65;100.00
25658;BME280;13517;59.320;18.042;2023-10-09T04:47:04;101010.28;;;3.08;100.00
25658;BME280;13517;59.320;18.042;2023-10-09T04:49:37;100997.09;;;3.02;100.00
25658;BME280;13517;59.320;18.042;2023-10-09T04:52:15;100975.19;;;2.91;100.00
25658;BME280;13517;59.320;18.042;2023-10-09T04:55:04;100995.22;;;3.06;100.00
25658;BME280;13517;59.320;18.042;2023-10-09T05:02:57;100982.19;;;2.95;100.00
25658;BME280;13517;59.320;18.042;2023-10-09T05:05:26;100990.91;;;3.02;100.00
25658;BME280;13517;59.320;18.042;2023-10-09T05:08:17;100976.09;;;2.90;100.00
25658;BME280;13517;59.320;18.042;2023-10-09T05:10:57;100915.72;;;2.55;100.00
25658;BME280;13517;59.320;18.042;2023-10-09T05:13:23;100961.13;;;2.85;100.00
25658;BME280;13517;59.320;18.042;2023-10-09T05:16:12;100990.75;;;3.06;100.00
25658;BME280;13517;59.320;18.042;2023-10-09T05:18:48;100951.25;;;2.88;100.00
25658;BME280;13517;59.320;18.042;2023-10-09T05:21:31;100976.38;;;3.10;100.00
25658;BME280;13517;59.320;18.042;2023-10-09T05:24:02;100999.50;;;3.11;100.00
25658;BME280;13517;59.320;18.042;2023-10-09T05:26:43;100974.50;;;3.14;100.00
25658;BME280;13517;59.320;18.042;2023-10-09T05:29:15;100973.00;;;3.05;100.00
25658;BME280;13517;59.320;18.042;2023-10-09T05:31:53;100957.94;;;3.03;100.00
25658;BME280;13517;59.320;18.042;2023-10-09T05:34:28;100971.75;;;3.17;100.00
25658;BME280;13517;59.320;18.042;2023-10-09T05:37:20;100964.16;;;3.03;100.00
25658;BME280;13517;59.320;18.042;2023-10-09T05:40:02;100935.25;;;2.88;100.00
25658;BME280;13517;59.320;18.042;2023-10-09T05:42:31;100963.13;;;3.09;100.00
25658;BME280;13517;59.320;18.042;2023-10-09T05:45:07;100979.81;;;3.16;100.00
25658;BME280;13517;59.320;18.042;2023-10-09T05:47:52;100985.97;;;3.18;100.00
25658;BME280;13517;59.320;18.042;2023-10-09T05:50:36;100976.38;;;3.10;100.00
25658;BME280;13517;59.320;18.042;2023-10-09T05:53:25;100979.69;;;3.19;100.00
25658;BME280;13517;59.320;18.042;2023-10-09T05:56:09;100983.25;;;3.19;100.00
25658;BME280;13517;59.320;18.042;2023-10-09T05:58:53;100971.06;;;3.10;100.00
25658;BME280;13517;59.320;18.042;2023-10-09T06:01:37;100949.06;;;3.02;100.00
25658;BME280;13517;59.320;18.042;2023-10-09T06:04:21;100960.38;;;3.10;100.00
25658;BME280;13517;59.320;18.042;2023-10-09T06:07:01;100989.28;;;3.26;100.00
25658;BME280;13517;59.320;18.042;2023-10-09T06:09:36;100974.28;;;3.22;100.00
25658;BME280;13517;59.320;18.042;2023-10-09T06:12:21;100988.38;;;3.27;100.00
25658;BME280;13517;59.320;18.042;2023-10-09T06:15:01;100991.16;;;3.22;100.00
25658;BME280;13517;59.320;18.042;2023-10-09T06:17:47;100990.28;;;3.23;100.00
25658;BME280;13517;59.320;18.042;2023-10-09T06:20:25;100995.38;;;3.31;100.00
25658;BME280;13517;59.320;18.042;2023-10-09T06:23:25;100980.44;;;3.24;100.00
25658;BME280;13517;59.320;18.042;2023-10-09T06:26:10;100985.47;;;3.35;100.00
25658;BME280;13517;59.320;18.042;2023-10-09T06:28:49;100988.28;;;3.30;100.00
25658;BME280;13517;59.320;18.042;2023-10-09T06:31:15;100923.56;;;2.92;100.00
25658;BME280;13517;59.320;18.042;2023-10-09T06:34:15;100896.22;;;2.83;100.00
25658;BME280;13517;59.320;18.042;2023-10-09T06:36:40;100970.56;;;3.27;100.00
25658;BME280;13517;59.320;18.042;2023-10-09T06:39:18;100905.72;;;2.94;100.00
25658;BME280;13517;59.320;18.042;2023-10-09T06:42:02;100904.75;;;2.96;100.00
25658;BME280;13517;59.320;18.042;2023-10-09T06:44:59;100966.84;;;3.33;100.00
25658;BME280;13517;59.320;18.042;2023-10-09T06:47:24;100963.06;;;3.40;100.00
25658;BME280;13517;59.320;18.042;2023-10-09T06:49:50;100898.28;;;3.05;100.00
25658;BME280;13517;59.320;18.042;2023-10-09T06:52:34;100984.75;;;3.58;100.00
25658;BME280;13517;59.320;18.042;2023-10-09T06:55:18;100989.91;;;3.64;100.00
25658;BME280;13517;59.320;18.042;2023-10-09T06:57:46;100985.72;;;3.56;100.00
25658;BME280;13517;59.320;18.042;2023-10-09T07:00:15;100992.53;;;3.66;100.00
25658;BME280;13517;59.320;18.042;2023-10-09T07:03:00;100993.34;;;3.68;100.00
25658;BME280;13517;59.320;18.042;2023-10-09T07:05:37;101002.78;;;3.80;100.00
25658;BME280;13517;59.320;18.042;2023-10-09T07:08:13;100910.84;;;3.30;100.00
25658;BME280;13517;59.320;18.042;2023-10-09T07:10:57;100977.09;;;3.76;100.00
25658;BME280;13517;59.320;18.042;2023-10-09T07:13:28;100973.41;;;3.78;100.00
25658;BME280;13517;59.320;18.042;2023-10-09T07:15:54;100979.66;;;3.79;100.00
25658;BME280;13517;59.320;18.042;2023-10-09T07:18:38;100922.03;;;3.70;100.00
25658;BME280;13517;59.320;18.042;2023-10-09T07:21:14;100976.78;;;4.12;100.00
25658;BME280;13517;59.320;18.042;2023-10-09T07:23:43;101007.63;;;4.22;100.00
25658;BME280;13517;59.320;18.042;2023-10-09T07:26:14;100892.16;;;3.59;100.00
25658;BME280;13517;59.320;18.042;2023-10-09T07:28:58;100999.72;;;4.19;100.00
25658;BME280;13517;59.320;18.042;2023-10-09T07:31:41;101011.09;;;4.26;100.00
25658;BME280;13517;59.320;18.042;2023-10-09T07:34:10;100998.59;;;4.27;100.00
25658;BME280;13517;59.320;18.042;2023-10-09T07:36:55;101012.47;;;4.38;100.00
25658;BME280;13517;59.320;18.042;2023-10-09T07:39:22;100993.56;;;4.43;100.00
25658;BME280;13517;59.320;18.042;2023-10-09T07:41:48;100996.09;;;4.47;100.00
25658;BME280;13517;59.320;18.042;2023-10-09T07:44:41;100917.66;;;3.94;100.00
25658;BME280;13517;59.320;18.042;2023-10-09T07:47:07;100961.97;;;4.29;100.00
25658;BME280;13517;59.320;18.042;2023-10-09T07:50:05;101002.59;;;4.66;100.00
25658;BME280;13517;59.320;18.042;2023-10-09T07:52:36;100988.31;;;4.67;100.00
25658;BME280;13517;59.320;18.042;2023-10-09T07:55:09;101001.47;;;4.73;100.00
25658;BME280;13517;59.320;18.042;2023-10-09T07:57:53;101007.56;;;4.76;100.00
25658;BME280;13517;59.320;18.042;2023-10-09T08:00:18;100993.22;;;4.79;100.00
25658;BME280;13517;59.320;18.042;2023-10-09T08:03:02;100951.94;;;4.61;100.00
25658;BME280;13517;59.320;18.042;2023-10-09T08:05:28;100977.22;;;4.77;100.00
25658;BME280;13517;59.320;18.042;2023-10-09T08:08:09;100919.38;;;4.48;100.00
25658;BME280;13517;59.320;18.042;2023-10-09T08:11:06;100974.88;;;4.92;100.00
25658;BME280;13517;59.320;18.042;2023-10-09T08:13:50;100981.59;;;5.04;100.00
25658;BME280;13517;59.320;18.042;2023-10-09T08:16:23;100957.78;;;4.96;100.00
25658;BME280;13517;59.320;18.042;2023-10-09T08:18:49;100962.88;;;5.02;100.00
25658;BME280;13517;59.320;18.042;2023-10-09T08:21:19;100991.09;;;5.13;100.00
25658;BME280;13517;59.320;18.042;2023-10-09T08:23:45;100902.22;;;4.79;100.00
25658;BME280;13517;59.320;18.042;2023-10-09T08:26:14;100930.75;;;5.02;100.00
25658;BME280;13517;59.320;18.042;2023-10-09T08:28:43;100984.09;;;5.32;100.00
25658;BME280;13517;59.320;18.042;2023-10-09T08:31:11;100968.88;;;5.33;100.00
25658;BME280;13517;59.320;18.042;2023-10-09T08:33:56;100970.47;;;5.39;100.00
25658;BME280;13517;59.320;18.042;2023-10-09T08:36:28;100979.81;;;5.51;100.00
25658;BME280;13517;59.320;18.042;2023-10-09T08:39:04;100987.78;;;5.52;100.00
25658;BME280;13517;59.320;18.042;2023-10-09T08:41:42;100982.00;;;5.63;100.00
25658;BME280;13517;59.320;18.042;2023-10-09T08:44:11;100987.00;;;5.72;100.00
25658;BME280;13517;59.320;18.042;2023-10-09T08:46:37;100982.50;;;5.73;100.00
25658;BME280;13517;59.320;18.042;2023-10-09T08:49:05;100904.16;;;5.22;100.00
25658;BME280;13517;59.320;18.042;2023-10-09T08:51:33;100898.28;;;5.34;100.00
25658;BME280;13517;59.320;18.042;2023-10-09T08:54:00;100968.84;;;5.79;100.00
25658;BME280;13517;59.320;18.042;2023-10-09T08:56:25;100979.13;;;5.90;100.00
25658;BME280;13517;59.320;18.042;2023-10-09T08:58:58;100996.22;;;5.88;100.00
25658;BME280;13517;59.320;18.042;2023-10-09T09:01:27;100894.50;;;5.40;100.00
25658;BME280;13517;59.320;18.042;2023-10-09T09:03:56;100980.97;;;5.90;99.98
25658;BME280;13517;59.320;18.042;2023-10-09T09:06:22;100969.25;;;5.92;99.77
25658;BME280;13517;59.320;18.042;2023-10-09T09:08:49;100948.47;;;5.75;98.16
25658;BME280;13517;59.320;18.042;2023-10-09T09:11:20;100846.22;;;5.19;97.32
25658;BME280;13517;59.320;18.042;2023-10-09T09:16:25;100981.94;;;6.09;97.35
25658;BME280;13517;59.320;18.042;2023-10-09T09:19:05;100950.56;;;5.89;95.95
25658;BME280;13517;59.320;18.042;2023-10-09T09:21:48;100969.63;;;6.05;95.67
25658;BME280;13517;59.320;18.042;2023-10-09T09:24:14;100961.94;;;5.96;95.87
25658;BME280;13517;59.320;18.042;2023-10-09T09:27:01;100980.09;;;6.11;95.35
25658;BME280;13517;59.320;18.042;2023-10-09T09:32:06;100969.13;;;6.18;94.67
25658;BME280;13517;59.320;18.042;2023-10-09T09:34:50;100960.31;;;6.14;93.71
25658;BME280;13517;59.320;18.042;2023-10-09T09:37:22;100970.44;;;6.28;92.34
25658;BME280;13517;59.320;18.042;2023-10-09T09:39:55;100973.03;;;6.31;91.68
25658;BME280;13517;59.320;18.042;2023-10-09T09:42:22;100954.00;;;6.15;89.60
25658;BME280;13517;59.320;18.042;2023-10-09T09:44:52;100966.97;;;6.26;87.91
25658;BME280;13517;59.320;18.042;2023-10-09T09:47:18;100964.81;;;6.34;88.77
25658;BME280;13517;59.320;18.042;2023-10-09T09:49:52;100974.22;;;6.24;86.30
25658;BME280;13517;59.320;18.042;2023-10-09T09:52:33;100935.44;;;6.10;89.45
25658;BME280;13517;59.320;18.042;2023-10-09T09:55:10;100961.13;;;6.37;88.54
25658;BME280;13517;59.320;18.042;2023-10-09T09:57:44;100962.81;;;6.39;88.56
25658;BME280;13517;59.320;18.042;2023-10-09T10:00:18;100965.56;;;6.38;84.16
25658;BME280;13517;59.320;18.042;2023-10-09T10:03:09;100966.31;;;6.42;86.60
25658;BME280;13517;59.320;18.042;2023-10-09T10:05:36;100942.28;;;6.38;86.28
25658;BME280;13517;59.320;18.042;2023-10-09T10:08:03;100959.56;;;6.52;84.49
25658;BME280;13517;59.320;18.042;2023-10-09T10:10:40;100929.63;;;6.42;82.74
25658;BME280;13517;59.320;18.042;2023-10-09T10:13:17;100963.63;;;6.62;83.41
25658;BME280;13517;59.320;18.042;2023-10-09T10:18:31;100946.94;;;6.56;82.94
25658;BME280;13517;59.320;18.042;2023-10-09T10:21:15;100957.25;;;6.65;81.21
25658;BME280;13517;59.320;18.042;2023-10-09T10:23:54;100894.06;;;6.37;82.54
25658;BME280;13517;59.320;18.042;2023-10-09T10:26:31;100919.72;;;6.63;82.00
25658;BME280;13517;59.320;18.042;2023-10-09T10:29:18;100956.59;;;6.79;82.05
25658;BME280;13517;59.320;18.042;2023-10-09T10:34:20;100899.25;;;6.61;81.28
25658;BME280;13517;59.320;18.042;2023-10-09T10:36:50;100875.63;;;6.48;80.20
25658;BME280;13517;59.320;18.042;2023-10-09T10:39:23;100942.47;;;6.94;79.11
25658;BME280;13517;59.320;18.042;2023-10-09T10:42:08;100910.22;;;6.75;79.16
25658;BME280;13517;59.320;18.042;2023-10-09T10:44:35;100906.69;;;6.75;79.24
25658;BME280;13517;59.320;18.042;2023-10-09T10:47:10;100928.53;;;6.86;76.95
25658;BME280;13517;59.320;18.042;2023-10-09T10:49:53;100805.38;;;6.19;77.92
25658;BME280;13517;59.320;18.042;2023-10-09T10:52:42;100901.56;;;6.89;78.69
25658;BME280;13517;59.320;18.042;2023-10-09T10:55:12;100945.09;;;7.15;78.07
25658;BME280;13517;59.320;18.042;2023-10-09T10:58:15;100861.31;;;6.68;76.23
25658;BME280;13517;59.320;18.042;2023-10-09T11:00:54;100925.94;;;7.04;76.06
25658;BME280;13517;59.320;18.042;2023-10-09T11:03:23;100945.41;;;7.09;71.73
25658;BME280;13517;59.320;18.042;2023-10-09T11:05:55;100920.63;;;7.02;75.70
25658;BME280;13517;59.320;18.042;2023-10-09T11:08:25;100947.50;;;7.21;73.00
25658;BME280;13517;59.320;18.042;2023-10-09T11:11:11;100936.63;;;7.25;72.30
25658;BME280;13517;59.320;18.042;2023-10-09T11:13:41;100863.28;;;6.84;72.65
25658;BME280;13517;59.320;18.042;2023-10-09T11:16:23;100947.59;;;7.39;71.72
25658;BME280;13517;59.320;18.042;2023-10-09T11:19:11;100954.69;;;7.40;71.91
25658;BME280;13517;59.320;18.042;2023-10-09T11:21:56;100952.81;;;7.42;71.55
25658;BME280;13517;59.320;18.042;2023-10-09T11:24:31;100935.88;;;7.40;71.64
25658;BME280;13517;59.320;18.042;2023-10-09T11:27:02;100939.28;;;7.44;71.47
25658;BME280;13517;59.320;18.042;2023-10-09T11:29:35;100947.78;;;7.54;71.05
25658;BME280;13517;59.320;18.042;2023-10-09T11:32:16;100957.59;;;7.55;71.63
25658;BME280;13517;59.320;18.042;2023-10-09T11:34:50;100949.59;;;7.53;69.70
25658;BME280;13517;59.320;18.042;2023-10-09T11:37:20;100839.56;;;6.94;71.31
25658;BME280;13517;59.320;18.042;2023-10-09T11:39:54;100940.97;;;7.46;71.45
25658;BME280;13517;59.320;18.042;2023-10-09T11:42:22;100940.97;;;7.46;71.73
25658;BME280;13517;59.320;18.042;2023-10-09T11:45:07;100963.19;;;7.50;71.39
25658;BME280;13517;59.320;18.042;2023-10-09T11:47:46;100879.34;;;7.05;70.93
25658;BME280;13517;59.320;18.042;2023-10-09T11:53:44;100941.97;;;7.63;70.25
25658;BME280;13517;59.320;18.042;2023-10-09T11:56:16;100947.03;;;7.69;69.91
25658;BME280;13517;59.320;18.042;2023-10-09T11:58:49;100951.53;;;7.69;70.15
25658;BME280;13517;59.320;18.042;2023-10-09T12:01:15;100956.84;;;7.70;70.52
25658;BME280;13517;59.320;18.042;2023-10-09T12:03:43;100927.13;;;7.54;70.19
25658;BME280;13517;59.320;18.042;2023-10-09T12:06:14;100817.47;;;6.87;70.48
25658;BME280;13517;59.320;18.042;2023-10-09T12:08:40;100932.88;;;7.66;71.01
25658;BME280;13517;59.320;18.042;2023-10-09T12:11:08;100952.41;;;7.69;71.77
25658;BME280;13517;59.320;18.042;2023-10-09T12:13:35;100961.91;;;7.76;71.33
25658;BME280;13517;59.320;18.042;2023-10-09T12:16:01;100947.69;;;7.74;72.51
25658;BME280;13517;59.320;18.042;2023-10-09T12:18:33;100946.97;;;7.71;72.03
25658;BME280;13517;59.320;18.042;2023-10-09T12:21:00;100913.31;;;7.44;72.23
25658;BME280;13517;59.320;18.042;2023-10-09T12:23:30;100961.03;;;7.76;73.13
25658;BME280;13517;59.320;18.042;2023-10-09T12:26:01;100965.56;;;7.75;73.19
25658;BME280;13517;59.320;18.042;2023-10-09T12:28:27;100936.59;;;7.63;73.06
25658;BME280;13517;59.320;18.042;2023-10-09T12:30:53;100905.44;;;7.40;73.14
25658;BME280;13517;59.320;18.042;2023-10-09T12:33:20;100952.59;;;7.66;72.92
25658;BME280;13517;59.320;18.042;2023-10-09T12:35:53;100964.25;;;7.65;72.38
25658;BME280;13517;59.320;18.042;2023-10-09T12:38:25;100943.63;;;7.66;72.45
25658;BME280;13517;59.320;18.042;2023-10-09T12:41:06;100913.13;;;7.47;71.57
25658;BME280;13517;59.320;18.042;2023-10-09T12:43:52;100936.81;;;7.58;72.68
25658;BME280;13517;59.320;18.042;2023-10-09T12:46:19;100886.34;;;7.27;73.25
25658;BME280;13517;59.320;18.042;2023-10-09T12:48:51;100945.53;;;7.63;72.92
25658;BME280;13517;59.320;18.042;2023-10-09T12:51:19;100945.91;;;7.56;72.64
25658;BME280;13517;59.320;18.042;2023-10-09T12:53:46;100948.50;;;7.57;72.86
25658;BME280;13517;59.320;18.042;2023-10-09T12:56:25;100955.84;;;7.54;73.44
25658;BME280;13517;59.320;18.042;2023-10-09T12:59:08;100934.47;;;7.50;73.49
25658;BME280;13517;59.320;18.042;2023-10-09T13:01:40;100963.53;;;7.61;73.57
25658;BME280;13517;59.320;18.042;2023-10-09T13:04:09;100946.25;;;7.67;73.40
25658;BME280;13517;59.320;18.042;2023-10-09T13:06:39;100936.59;;;7.63;73.00
25658;BME280;13517;59.320;18.042;2023-10-09T13:09:12;100865.34;;;7.35;72.84
25658;BME280;13517;59.320;18.042;2023-10-09T13:11:39;100910.47;;;7.65;71.74
25658;BME280;13517;59.320;18.042;2023-10-09T13:14:06;100934.66;;;7.84;71.81
25658;BME280;13517;59.320;18.042;2023-10-09T13:16:47;100939.81;;;7.89;72.19
25658;BME280;13517;59.320;18.042;2023-10-09T13:19:16;100932.03;;;7.83;72.10
25658;BME280;13517;59.320;18.042;2023-10-09T13:21:43;100937.19;;;7.87;72.99
25658;BME280;13517;59.320;18.042;2023-10-09T13:24:09;100940.59;;;7.91;73.39
25658;BME280;13517;59.320;18.042;2023-10-09T13:26:49;100949.53;;;7.92;73.22
25658;BME280;13517;59.320;18.042;2023-10-09T13:29:23;100935.38;;;7.88;73.69
25658;BME280;13517;59.320;18.042;2023-10-09T13:31:49;100944.94;;;7.94;72.79
25658;BME280;13517;59.320;18.042;2023-10-09T13:34:17;100827.06;;;7.30;73.10
25658;BME280;13517;59.320;18.042;2023-10-09T13:36:43;100913.44;;;7.96;73.43
25658;BME280;13517;59.320;18.042;2023-10-09T13:39:18;100923.06;;;8.01;73.20